createdAt,value
2023-03-23T15:59:45.892Z,49.08
2023-03-23T16:02:53.946Z,49.20
2023-03-23T16:05:59.953Z,49.15
2023-03-23T16:09:03.485Z,49.12
2023-03-23T16:12:06.506Z,49.10
2023-03-23T16:15:11.472Z,49.21
2023-03-23T16:18:20.592Z,49.16
2023-03-23T16:21:23.683Z,49.22
2023-03-23T16:24:26.746Z,49.21
2023-03-23T16:27:29.678Z,49.31
2023-03-23T16:30:36.054Z,49.21
2023-03-23T16:33:39.453Z,49.23
2023-03-23T16:36:42.356Z,49.23
2023-03-23T16:39:45.276Z,49.19
2023-03-23T16:42:48.518Z,49.47
2023-03-23T16:45:56.602Z,49.12
2023-03-23T16:48:59.531Z,49.08
2023-03-23T16:52:02.466Z,49.18
2023-03-23T16:55:05.742Z,49.20
2023-03-23T16:58:17.092Z,49.40
2023-03-23T17:01:22.293Z,49.34
2023-03-23T17:04:25.220Z,49.29
2023-03-23T17:07:28.225Z,49.27
2023-03-23T17:10:32.510Z,49.29
2023-03-23T17:13:35.551Z,49.34
2023-03-23T17:16:40.364Z,49.27
2023-03-23T17:19:43.324Z,49.35
2023-03-23T17:22:46.390Z,49.34
2023-03-23T17:25:50.394Z,49.17
2023-03-23T17:28:53.376Z,49.36
2023-03-23T17:31:57.707Z,49.36
2023-03-23T17:35:01.646Z,49.28
2023-03-23T17:38:04.554Z,49.30
2023-03-23T17:41:08.177Z,49.25
2023-03-23T17:44:11.210Z,49.23
2023-03-23T17:47:16.231Z,49.19
2023-03-23T17:50:19.397Z,49.19
2023-03-23T17:53:22.343Z,49.29
2023-03-23T17:56:25.451Z,49.26
2023-03-23T17:59:29.163Z,49.19
2023-03-23T18:02:33.763Z,49.26
2023-03-23T18:05:39.321Z,49.08
2023-03-23T18:08:42.533Z,49.12
2023-03-23T18:11:45.646Z,49.26
2023-03-23T18:14:48.803Z,49.23
2023-03-23T18:17:53.180Z,49.17
2023-03-23T18:20:57.506Z,49.17
2023-03-23T18:24:00.642Z,49.07
2023-03-23T18:27:03.539Z,49.12
2023-03-23T18:30:08.126Z,49.05
2023-03-23T18:33:12.490Z,49.09
2023-03-23T18:36:16.762Z,48.92
2023-03-23T18:39:19.776Z,49.06
2023-03-23T18:42:22.983Z,48.99
2023-03-23T18:45:26.007Z,48.96
2023-03-23T18:48:30.504Z,48.99
2023-03-23T18:51:33.450Z,48.99
2023-03-23T18:54:38.263Z,48.87
2023-03-23T18:57:41.331Z,48.88
2023-03-23T19:00:44.737Z,48.87
2023-03-23T19:03:51.436Z,48.87
2023-03-23T19:06:54.380Z,48.85
2023-03-23T19:09:57.288Z,48.85
2023-03-23T19:13:00.340Z,48.83
2023-03-23T19:16:03.614Z,48.82
2023-03-23T19:19:09.007Z,48.80
2023-03-23T19:22:12.136Z,48.93
2023-03-23T19:25:15.273Z,48.79
2023-03-23T19:31:25.629Z,48.73
2023-03-23T19:34:30.738Z,48.75
2023-03-23T19:37:34.865Z,48.81
2023-03-23T19:40:50.041Z,48.63
2023-03-23T19:43:53.198Z,48.62
2023-03-23T19:46:56.634Z,48.60
2023-03-23T19:50:01.999Z,48.70
2023-03-23T19:53:05.435Z,48.76
2023-03-23T19:56:13.596Z,48.70
2023-03-23T19:59:17.106Z,48.73
2023-03-23T20:02:20.260Z,48.62
2023-03-23T20:05:24.759Z,48.65
2023-03-23T20:08:27.717Z,48.60
2023-03-23T20:11:31.690Z,48.62
2023-03-23T20:14:36.905Z,48.58
2023-03-23T20:17:40.632Z,48.57
2023-03-23T20:20:45.133Z,48.63
2023-03-23T20:23:48.476Z,48.63
2023-03-23T20:26:51.352Z,48.47
2023-03-23T20:29:56.105Z,48.56
2023-03-23T20:33:00.689Z,48.56
2023-03-23T20:36:06.007Z,48.56
2023-03-23T20:39:11.246Z,48.63
2023-03-23T20:42:14.375Z,48.72
2023-03-23T20:45:18.494Z,48.63
2023-03-23T20:48:21.841Z,48.56
2023-03-23T20:51:26.226Z,48.63
2023-03-23T20:54:31.222Z,48.52
2023-03-23T20:57:34.611Z,49.00
2023-03-23T21:00:37.486Z,49.24
2023-03-23T21:03:42.481Z,49.11
2023-03-23T21:06:48.907Z,48.87
2023-03-23T21:09:51.841Z,49.02
2023-03-23T21:12:54.842Z,49.19
2023-03-23T21:15:57.943Z,48.98
2023-03-23T21:19:01.591Z,48.95
2023-03-23T21:22:07.128Z,49.00
2023-03-23T21:25:10.493Z,49.02
2023-03-23T21:28:14.059Z,48.98
2023-03-23T21:31:17.742Z,48.96
2023-03-23T21:34:20.691Z,48.98
2023-03-23T21:37:25.153Z,48.83
2023-03-23T21:40:28.186Z,48.88
2023-03-23T21:43:31.139Z,48.92
2023-03-23T21:46:34.146Z,48.91
2023-03-23T21:49:40.890Z,48.95
2023-03-23T21:52:45.710Z,48.98
2023-03-23T21:55:51.556Z,49.18
2023-03-23T21:58:54.630Z,49.16
2023-03-23T22:01:59.165Z,49.04
2023-03-23T22:05:02.285Z,49.03
2023-03-23T22:08:07.014Z,49.27
2023-03-23T22:11:13.244Z,49.31
2023-03-23T22:14:16.326Z,49.06
2023-03-23T22:17:19.521Z,49.07
2023-03-23T22:20:22.879Z,49.01
2023-03-23T22:23:27.848Z,48.94
2023-03-23T22:26:31.426Z,48.92
2023-03-23T22:29:35.055Z,49.03
2023-03-23T22:32:38.137Z,49.07
2023-03-23T22:35:41.213Z,49.16
2023-03-23T22:38:47.457Z,49.25
2023-03-23T22:41:50.693Z,49.07
2023-03-23T22:44:53.812Z,49.02
2023-03-23T22:47:57.637Z,49.16
2023-03-23T22:51:01.486Z,49.13
2023-03-23T22:54:06.801Z,49.10
2023-03-23T22:57:09.968Z,49.14
2023-03-23T23:00:15.505Z,49.08
2023-03-23T23:03:18.662Z,49.15
2023-03-23T23:06:22.290Z,49.02
2023-03-23T23:09:27.446Z,49.11
2023-03-23T23:12:31.777Z,49.09
2023-03-23T23:15:35.133Z,49.05
2023-03-23T23:18:40.122Z,49.11
2023-03-23T23:21:43.227Z,49.06
2023-03-23T23:24:47.752Z,49.14
2023-03-23T23:27:51.064Z,49.15
2023-03-23T23:30:54.854Z,49.10
2023-03-23T23:34:00.470Z,49.26
2023-03-23T23:37:03.530Z,49.14
2023-03-23T23:40:09.454Z,49.12
2023-03-23T23:43:15.034Z,49.06
2023-03-23T23:46:18.347Z,49.18
2023-03-23T23:49:23.018Z,49.09
2023-03-23T23:52:26.270Z,49.18
2023-03-23T23:55:30.797Z,48.98
2023-03-23T23:58:33.939Z,48.99
